sensor_id;sensor_type;location;lat;lon;timestamp;temperature;humidity
7738;DHT22;29398;45.328;5.558;2022-07-29T00:00:33;23.50;62.90
7738;DHT22;29398;45.328;5.558;2022-07-29T00:01:35;23.50;63.50
7738;DHT22;29398;45.328;5.558;2022-07-29T00:02:36;23.50;63.10
7738;DHT22;29398;45.328;5.558;2022-07-29T00:03:38;23.50;63.30
7738;DHT22;29398;45.328;5.558;2022-07-29T00:04:41;23.40;63.20
7738;DHT22;29398;45.328;5.558;2022-07-29T00:05:43;23.40;63.00
7738;DHT22;29398;45.328;5.558;2022-07-29T00:06:44;23.40;63.60
7738;DHT22;29398;45.328;5.558;2022-07-29T00:07:46;23.40;63.20
7738;DHT22;29398;45.328;5.558;2022-07-29T00:08:47;23.40;63.60
7738;DHT22;29398;45.328;5.558;2022-07-29T00:09:49;23.30;63.50
7738;DHT22;29398;45.328;5.558;2022-07-29T00:10:50;23.30;63.50
7738;DHT22;29398;45.328;5.558;2022-07-29T00:11:54;23.30;63.40
7738;DHT22;29398;45.328;5.558;2022-07-29T00:12:55;23.30;63.70
7738;DHT22;29398;45.328;5.558;2022-07-29T00:13:58;23.30;64.70
7738;DHT22;29398;45.328;5.558;2022-07-29T00:14:59;23.30;65.00
7738;DHT22;29398;45.328;5.558;2022-07-29T00:16:01;23.20;65.40
7738;DHT22;29398;45.328;5.558;2022-07-29T00:17:02;23.10;65.00
7738;DHT22;29398;45.328;5.558;2022-07-29T00:18:04;23.10;65.00
7738;DHT22;29398;45.328;5.558;2022-07-29T00:19:05;23.10;65.70
7738;DHT22;29398;45.328;5.558;2022-07-29T00:20:09;23.00;65.80
7738;DHT22;29398;45.328;5.558;2022-07-29T00:21:10;23.00;65.10
7738;DHT22;29398;45.328;5.558;2022-07-29T00:22:12;23.00;65.00
7738;DHT22;29398;45.328;5.558;2022-07-29T00:23:14;23.10;65.00
7738;DHT22;29398;45.328;5.558;2022-07-29T00:24:16;23.10;65.80
7738;DHT22;29398;45.328;5.558;2022-07-29T00:25:17;23.10;65.20
7738;DHT22;29398;45.328;5.558;2022-07-29T00:26:19;23.20;69.70
7738;DHT22;29398;45.328;5.558;2022-07-29T00:27:20;23.20;65.70
7738;DHT22;29398;45.328;5.558;2022-07-29T00:28:22;23.10;67.40
7738;DHT22;29398;45.328;5.558;2022-07-29T00:29:23;23.10;65.60
7738;DHT22;29398;45.328;5.558;2022-07-29T00:30:25;23.10;65.40
7738;DHT22;29398;45.328;5.558;2022-07-29T00:31:27;23.20;66.00
7738;DHT22;29398;45.328;5.558;2022-07-29T00:32:29;23.20;67.10
7738;DHT22;29398;45.328;5.558;2022-07-29T00:33:30;23.10;66.80
7738;DHT22;29398;45.328;5.558;2022-07-29T00:34:32;23.10;66.10
7738;DHT22;29398;45.328;5.558;2022-07-29T00:35:53;23.10;66.30
7738;DHT22;29398;45.328;5.558;2022-07-29T00:36:54;23.10;66.60
7738;DHT22;29398;45.328;5.558;2022-07-29T00:37:55;23.10;65.80
7738;DHT22;29398;45.328;5.558;2022-07-29T00:38:57;23.10;69.00
7738;DHT22;29398;45.328;5.558;2022-07-29T00:39:58;23.10;69.20
7738;DHT22;29398;45.328;5.558;2022-07-29T00:41:01;23.00;65.70
7738;DHT22;29398;45.328;5.558;2022-07-29T00:42:04;22.90;65.60
7738;DHT22;29398;45.328;5.558;2022-07-29T00:43:05;22.90;65.50
7738;DHT22;29398;45.328;5.558;2022-07-29T00:44:07;22.90;65.80
7738;DHT22;29398;45.328;5.558;2022-07-29T00:45:09;22.90;65.70
7738;DHT22;29398;45.328;5.558;2022-07-29T00:46:12;22.80;65.90
7738;DHT22;29398;45.328;5.558;2022-07-29T00:47:13;22.80;65.70
7738;DHT22;29398;45.328;5.558;2022-07-29T00:48:15;22.80;65.80
7738;DHT22;29398;45.328;5.558;2022-07-29T00:49:16;22.70;65.90
7738;DHT22;29398;45.328;5.558;2022-07-29T00:50:18;22.70;65.60
7738;DHT22;29398;45.328;5.558;2022-07-29T00:51:21;22.70;65.70
7738;DHT22;29398;45.328;5.558;2022-07-29T00:52:23;22.60;65.50
7738;DHT22;29398;45.328;5.558;2022-07-29T00:53:25;22.60;65.50
7738;DHT22;29398;45.328;5.558;2022-07-29T00:54:27;22.60;65.40
7738;DHT22;29398;45.328;5.558;2022-07-29T00:55:29;22.60;65.40
7738;DHT22;29398;45.328;5.558;2022-07-29T00:56:32;22.50;65.50
7738;DHT22;29398;45.328;5.558;2022-07-29T00:57:34;22.60;65.60
7738;DHT22;29398;45.328;5.558;2022-07-29T00:58:36;22.60;65.40
7738;DHT22;29398;45.328;5.558;2022-07-29T00:59:39;22.70;65.70
7738;DHT22;29398;45.328;5.558;2022-07-29T01:00:40;22.70;65.40
7738;DHT22;29398;45.328;5.558;2022-07-29T01:01:42;22.60;65.30
7738;DHT22;29398;45.328;5.558;2022-07-29T01:02:43;22.70;65.70
7738;DHT22;29398;45.328;5.558;2022-07-29T01:03:45;22.70;65.30
7738;DHT22;29398;45.328;5.558;2022-07-29T01:04:46;22.80;65.20
7738;DHT22;29398;45.328;5.558;2022-07-29T01:05:48;22.80;65.00
7738;DHT22;29398;45.328;5.558;2022-07-29T01:06:51;22.90;65.20
7738;DHT22;29398;45.328;5.558;2022-07-29T01:07:54;22.90;65.20
7738;DHT22;29398;45.328;5.558;2022-07-29T01:08:56;22.90;65.50
7738;DHT22;29398;45.328;5.558;2022-07-29T01:09:59;22.80;65.40
7738;DHT22;29398;45.328;5.558;2022-07-29T01:11:01;22.80;65.40
7738;DHT22;29398;45.328;5.558;2022-07-29T01:12:04;22.80;65.80
7738;DHT22;29398;45.328;5.558;2022-07-29T01:13:05;22.80;65.90
7738;DHT22;29398;45.328;5.558;2022-07-29T01:14:08;22.80;66.10
7738;DHT22;29398;45.328;5.558;2022-07-29T01:15:10;22.80;66.00
7738;DHT22;29398;45.328;5.558;2022-07-29T01:16:17;22.80;66.90
7738;DHT22;29398;45.328;5.558;2022-07-29T01:17:25;22.80;67.20
7738;DHT22;29398;45.328;5.558;2022-07-29T01:18:32;22.70;66.80
7738;DHT22;29398;45.328;5.558;2022-07-29T01:19:48;22.70;67.80
7738;DHT22;29398;45.328;5.558;2022-07-29T01:24:14;22.70;67.20
7738;DHT22;29398;45.328;5.558;2022-07-29T01:25:42;22.80;66.80
7738;DHT22;29398;45.328;5.558;2022-07-29T01:26:49;22.70;66.30
7738;DHT22;29398;45.328;5.558;2022-07-29T01:28:19;22.70;66.10
7738;DHT22;29398;45.328;5.558;2022-07-29T01:29:26;22.70;66.40
7738;DHT22;29398;45.328;5.558;2022-07-29T01:30:29;22.70;66.10
7738;DHT22;29398;45.328;5.558;2022-07-29T01:31:35;22.80;65.80
7738;DHT22;29398;45.328;5.558;2022-07-29T01:32:39;22.80;65.70
7738;DHT22;29398;45.328;5.558;2022-07-29T01:33:45;22.80;65.70
7738;DHT22;29398;45.328;5.558;2022-07-29T01:34:56;22.80;65.40
7738;DHT22;29398;45.328;5.558;2022-07-29T01:35:59;22.80;65.30
7738;DHT22;29398;45.328;5.558;2022-07-29T01:37:12;22.80;65.30
7738;DHT22;29398;45.328;5.558;2022-07-29T01:38:20;22.80;65.70
7738;DHT22;29398;45.328;5.558;2022-07-29T01:39:26;22.80;66.50
7738;DHT22;29398;45.328;5.558;2022-07-29T01:40:33;22.70;67.20
7738;DHT22;29398;45.328;5.558;2022-07-29T01:41:38;22.70;67.90
7738;DHT22;29398;45.328;5.558;2022-07-29T01:42:43;22.60;68.00
7738;DHT22;29398;45.328;5.558;2022-07-29T01:43:50;22.50;67.30
7738;DHT22;29398;45.328;5.558;2022-07-29T01:44:59;22.50;67.50
7738;DHT22;29398;45.328;5.558;2022-07-29T01:46:05;22.60;67.50
7738;DHT22;29398;45.328;5.558;2022-07-29T01:47:13;22.60;67.20
7738;DHT22;29398;45.328;5.558;2022-07-29T01:48:21;22.60;67.30
7738;DHT22;29398;45.328;5.558;2022-07-29T01:49:27;22.60;67.80
7738;DHT22;29398;45.328;5.558;2022-07-29T01:50:33;22.60;67.60
7738;DHT22;29398;45.328;5.558;2022-07-29T01:51:41;22.50;67.20
7738;DHT22;29398;45.328;5.558;2022-07-29T01:52:44;22.50;67.90
7738;DHT22;29398;45.328;5.558;2022-07-29T01:53:54;22.60;67.60
7738;DHT22;29398;45.328;5.558;2022-07-29T01:54:59;22.60;67.50
7738;DHT22;29398;45.328;5.558;2022-07-29T01:56:05;22.60;67.40
7738;DHT22;29398;45.328;5.558;2022-07-29T01:57:09;22.60;67.50
7738;DHT22;29398;45.328;5.558;2022-07-29T01:58:14;22.60;67.40
7738;DHT22;29398;45.328;5.558;2022-07-29T01:59:18;22.70;67.40
7738;DHT22;29398;45.328;5.558;2022-07-29T02:00:23;22.70;67.80
7738;DHT22;29398;45.328;5.558;2022-07-29T02:01:27;22.80;67.10
7738;DHT22;29398;45.328;5.558;2022-07-29T02:02:31;22.80;67.00
7738;DHT22;29398;45.328;5.558;2022-07-29T02:03:35;22.80;67.00
7738;DHT22;29398;45.328;5.558;2022-07-29T02:04:37;22.80;66.80
7738;DHT22;29398;45.328;5.558;2022-07-29T02:05:43;22.80;66.70
7738;DHT22;29398;45.328;5.558;2022-07-29T02:06:47;22.80;66.60
7738;DHT22;29398;45.328;5.558;2022-07-29T02:07:53;22.80;66.30
7738;DHT22;29398;45.328;5.558;2022-07-29T02:08:56;22.80;66.00
7738;DHT22;29398;45.328;5.558;2022-07-29T02:11:03;22.70;65.00
7738;DHT22;29398;45.328;5.558;2022-07-29T02:12:06;22.70;65.60
7738;DHT22;29398;45.328;5.558;2022-07-29T02:13:10;22.70;65.70
7738;DHT22;29398;45.328;5.558;2022-07-29T02:14:13;22.70;65.80
7738;DHT22;29398;45.328;5.558;2022-07-29T02:15:16;22.60;65.80
7738;DHT22;29398;45.328;5.558;2022-07-29T02:16:21;22.60;65.90
7738;DHT22;29398;45.328;5.558;2022-07-29T02:17:26;22.60;66.10
7738;DHT22;29398;45.328;5.558;2022-07-29T02:18:30;22.60;66.10
7738;DHT22;29398;45.328;5.558;2022-07-29T02:19:35;22.70;65.90
7738;DHT22;29398;45.328;5.558;2022-07-29T02:20:39;22.60;66.40
7738;DHT22;29398;45.328;5.558;2022-07-29T02:21:41;22.70;66.60
7738;DHT22;29398;45.328;5.558;2022-07-29T02:22:44;22.70;66.50
7738;DHT22;29398;45.328;5.558;2022-07-29T02:23:46;22.60;66.60
7738;DHT22;29398;45.328;5.558;2022-07-29T02:24:51;22.60;67.20
7738;DHT22;29398;45.328;5.558;2022-07-29T02:25:56;22.60;67.40
7738;DHT22;29398;45.328;5.558;2022-07-29T02:27:00;22.60;67.50
7738;DHT22;29398;45.328;5.558;2022-07-29T02:28:02;22.50;68.00
7738;DHT22;29398;45.328;5.558;2022-07-29T02:29:06;22.50;68.00
7738;DHT22;29398;45.328;5.558;2022-07-29T02:30:09;22.40;67.70
7738;DHT22;29398;45.328;5.558;2022-07-29T02:31:13;22.30;69.90
7738;DHT22;29398;45.328;5.558;2022-07-29T02:32:17;22.20;70.30
7738;DHT22;29398;45.328;5.558;2022-07-29T02:33:20;22.10;70.00
7738;DHT22;29398;45.328;5.558;2022-07-29T02:34:23;22.00;69.80
7738;DHT22;29398;45.328;5.558;2022-07-29T02:35:26;22.00;69.90
7738;DHT22;29398;45.328;5.558;2022-07-29T02:36:28;21.90;70.10
7738;DHT22;29398;45.328;5.558;2022-07-29T02:37:32;22.00;70.40
7738;DHT22;29398;45.328;5.558;2022-07-29T02:38:34;22.00;70.20
7738;DHT22;29398;45.328;5.558;2022-07-29T02:39:53;22.00;70.10
7738;DHT22;29398;45.328;5.558;2022-07-29T02:40:55;22.10;70.20
7738;DHT22;29398;45.328;5.558;2022-07-29T02:42:02;22.10;70.00
7738;DHT22;29398;45.328;5.558;2022-07-29T02:43:05;22.10;70.00
7738;DHT22;29398;45.328;5.558;2022-07-29T02:44:10;22.10;69.80
7738;DHT22;29398;45.328;5.558;2022-07-29T02:45:12;22.20;69.90
7738;DHT22;29398;45.328;5.558;2022-07-29T02:46:18;22.10;69.60
7738;DHT22;29398;45.328;5.558;2022-07-29T02:47:24;22.10;69.40
7738;DHT22;29398;45.328;5.558;2022-07-29T02:48:36;22.20;69.20
7738;DHT22;29398;45.328;5.558;2022-07-29T02:49:40;22.20;69.10
7738;DHT22;29398;45.328;5.558;2022-07-29T02:50:49;22.20;68.70
7738;DHT22;29398;45.328;5.558;2022-07-29T02:51:54;22.20;68.40
7738;DHT22;29398;45.328;5.558;2022-07-29T02:53:00;22.20;68.80
7738;DHT22;29398;45.328;5.558;2022-07-29T02:54:06;22.20;68.00
7738;DHT22;29398;45.328;5.558;2022-07-29T02:55:15;22.20;67.80
7738;DHT22;29398;45.328;5.558;2022-07-29T02:56:20;22.20;67.70
7738;DHT22;29398;45.328;5.558;2022-07-29T02:57:31;22.10;67.80
7738;DHT22;29398;45.328;5.558;2022-07-29T02:58:35;22.10;68.00
7738;DHT22;29398;45.328;5.558;2022-07-29T02:59:41;22.10;68.10
7738;DHT22;29398;45.328;5.558;2022-07-29T03:00:44;22.10;68.20
7738;DHT22;29398;45.328;5.558;2022-07-29T03:01:49;22.10;68.10
7738;DHT22;29398;45.328;5.558;2022-07-29T03:02:55;22.10;67.80
7738;DHT22;29398;45.328;5.558;2022-07-29T03:04:00;22.10;67.60
7738;DHT22;29398;45.328;5.558;2022-07-29T03:05:04;22.20;67.40
7738;DHT22;29398;45.328;5.558;2022-07-29T03:06:07;22.20;67.40
7738;DHT22;29398;45.328;5.558;2022-07-29T03:07:11;22.10;67.20
7738;DHT22;29398;45.328;5.558;2022-07-29T03:08:15;22.20;67.00
7738;DHT22;29398;45.328;5.558;2022-07-29T03:09:17;22.20;67.20
7738;DHT22;29398;45.328;5.558;2022-07-29T03:10:19;22.10;67.30
7738;DHT22;29398;45.328;5.558;2022-07-29T03:11:21;22.10;67.40
7738;DHT22;29398;45.328;5.558;2022-07-29T03:12:24;22.10;67.30
7738;DHT22;29398;45.328;5.558;2022-07-29T03:13:26;22.10;67.30
7738;DHT22;29398;45.328;5.558;2022-07-29T03:14:28;22.10;67.30
7738;DHT22;29398;45.328;5.558;2022-07-29T03:15:31;22.10;67.20
7738;DHT22;29398;45.328;5.558;2022-07-29T03:16:34;22.10;66.90
7738;DHT22;29398;45.328;5.558;2022-07-29T03:17:37;22.10;67.30
7738;DHT22;29398;45.328;5.558;2022-07-29T03:18:42;22.10;67.50
7738;DHT22;29398;45.328;5.558;2022-07-29T03:19:46;22.00;67.70
7738;DHT22;29398;45.328;5.558;2022-07-29T03:20:49;21.90;69.80
7738;DHT22;29398;45.328;5.558;2022-07-29T03:21:50;21.90;69.60
7738;DHT22;29398;45.328;5.558;2022-07-29T03:22:52;21.80;69.50
7738;DHT22;29398;45.328;5.558;2022-07-29T03:23:54;21.80;71.20
7738;DHT22;29398;45.328;5.558;2022-07-29T03:24:56;21.70;70.50
7738;DHT22;29398;45.328;5.558;2022-07-29T03:25:57;21.70;71.00
7738;DHT22;29398;45.328;5.558;2022-07-29T03:26:59;21.60;72.30
7738;DHT22;29398;45.328;5.558;2022-07-29T03:28:01;21.60;72.10
7738;DHT22;29398;45.328;5.558;2022-07-29T03:29:03;21.50;71.90
7738;DHT22;29398;45.328;5.558;2022-07-29T03:30:05;21.50;72.30
7738;DHT22;29398;45.328;5.558;2022-07-29T03:31:07;21.50;72.30
7738;DHT22;29398;45.328;5.558;2022-07-29T03:32:08;21.50;72.40
7738;DHT22;29398;45.328;5.558;2022-07-29T03:33:10;21.50;72.40
7738;DHT22;29398;45.328;5.558;2022-07-29T03:34:15;21.50;72.40
7738;DHT22;29398;45.328;5.558;2022-07-29T03:35:17;21.50;72.50
7738;DHT22;29398;45.328;5.558;2022-07-29T03:36:19;21.50;72.50
7738;DHT22;29398;45.328;5.558;2022-07-29T03:37:22;21.50;72.70
7738;DHT22;29398;45.328;5.558;2022-07-29T03:38:25;21.50;72.60
7738;DHT22;29398;45.328;5.558;2022-07-29T03:39:33;21.60;72.70
7738;DHT22;29398;45.328;5.558;2022-07-29T03:40:38;21.60;72.60
7738;DHT22;29398;45.328;5.558;2022-07-29T03:41:42;21.60;72.50
7738;DHT22;29398;45.328;5.558;2022-07-29T03:42:45;21.60;72.40
7738;DHT22;29398;45.328;5.558;2022-07-29T03:43:49;21.60;72.30
7738;DHT22;29398;45.328;5.558;2022-07-29T03:44:52;21.70;72.30
7738;DHT22;29398;45.328;5.558;2022-07-29T03:45:57;21.70;72.10
7738;DHT22;29398;45.328;5.558;2022-07-29T03:46:59;21.80;72.50
7738;DHT22;29398;45.328;5.558;2022-07-29T03:48:08;21.80;72.30
7738;DHT22;29398;45.328;5.558;2022-07-29T03:49:11;21.70;72.30
7738;DHT22;29398;45.328;5.558;2022-07-29T03:50:16;21.70;72.50
7738;DHT22;29398;45.328;5.558;2022-07-29T03:51:18;21.60;72.50
7738;DHT22;29398;45.328;5.558;2022-07-29T03:52:21;21.60;73.30
7738;DHT22;29398;45.328;5.558;2022-07-29T03:53:22;21.60;73.00
7738;DHT22;29398;45.328;5.558;2022-07-29T03:54:25;21.60;73.10
7738;DHT22;29398;45.328;5.558;2022-07-29T03:55:28;21.60;73.10
7738;DHT22;29398;45.328;5.558;2022-07-29T03:56:34;21.60;73.60
7738;DHT22;29398;45.328;5.558;2022-07-29T03:57:37;21.60;73.40
7738;DHT22;29398;45.328;5.558;2022-07-29T03:58:41;21.60;73.40
7738;DHT22;29398;45.328;5.558;2022-07-29T03:59:44;21.70;73.70
7738;DHT22;29398;45.328;5.558;2022-07-29T04:00:46;21.70;74.50
7738;DHT22;29398;45.328;5.558;2022-07-29T04:01:49;21.70;73.80
7738;DHT22;29398;45.328;5.558;2022-07-29T04:02:50;21.70;74.50
7738;DHT22;29398;45.328;5.558;2022-07-29T04:03:52;21.70;73.80
7738;DHT22;29398;45.328;5.558;2022-07-29T04:04:53;21.70;73.50
7738;DHT22;29398;45.328;5.558;2022-07-29T04:06:02;21.70;74.30
7738;DHT22;29398;45.328;5.558;2022-07-29T04:07:03;21.70;73.80
7738;DHT22;29398;45.328;5.558;2022-07-29T04:08:05;21.70;73.90
7738;DHT22;29398;45.328;5.558;2022-07-29T04:09:07;21.70;74.40
7738;DHT22;29398;45.328;5.558;2022-07-29T04:10:10;21.70;73.40
7738;DHT22;29398;45.328;5.558;2022-07-29T04:11:11;21.80;73.20
7738;DHT22;29398;45.328;5.558;2022-07-29T04:12:13;21.80;73.30
7738;DHT22;29398;45.328;5.558;2022-07-29T04:13:15;21.70;73.20
7738;DHT22;29398;45.328;5.558;2022-07-29T04:14:17;21.70;73.30
7738;DHT22;29398;45.328;5.558;2022-07-29T04:15:18;21.80;73.30
7738;DHT22;29398;45.328;5.558;2022-07-29T04:16:20;21.80;73.70
7738;DHT22;29398;45.328;5.558;2022-07-29T04:17:22;21.80;73.20
7738;DHT22;29398;45.328;5.558;2022-07-29T04:18:23;22.20;73.40
7738;DHT22;29398;45.328;5.558;2022-07-29T04:19:26;21.80;73.30
7738;DHT22;29398;45.328;5.558;2022-07-29T04:20:27;21.90;73.20
7738;DHT22;29398;45.328;5.558;2022-07-29T04:21:31;21.80;72.70
7738;DHT22;29398;45.328;5.558;2022-07-29T04:22:32;21.80;73.10
7738;DHT22;29398;45.328;5.558;2022-07-29T04:23:34;21.90;73.40
7738;DHT22;29398;45.328;5.558;2022-07-29T04:24:35;21.90;73.40
7738;DHT22;29398;45.328;5.558;2022-07-29T04:25:38;21.80;73.30
7738;DHT22;29398;45.328;5.558;2022-07-29T04:26:39;21.80;73.40
7738;DHT22;29398;45.328;5.558;2022-07-29T04:27:41;21.70;73.70
7738;DHT22;29398;45.328;5.558;2022-07-29T04:28:57;21.70;74.50
7738;DHT22;29398;45.328;5.558;2022-07-29T04:29:59;21.60;74.20
7738;DHT22;29398;45.328;5.558;2022-07-29T04:31:00;21.60;74.60
7738;DHT22;29398;45.328;5.558;2022-07-29T04:32:03;21.60;74.70
7738;DHT22;29398;45.328;5.558;2022-07-29T04:33:05;21.60;74.90
7738;DHT22;29398;45.328;5.558;2022-07-29T04:34:08;21.60;74.70
7738;DHT22;29398;45.328;5.558;2022-07-29T04:35:09;21.60;74.80
7738;DHT22;29398;45.328;5.558;2022-07-29T04:37:14;21.60;74.40
7738;DHT22;29398;45.328;5.558;2022-07-29T04:38:16;21.70;75.10
7738;DHT22;29398;45.328;5.558;2022-07-29T04:39:17;21.70;75.10
7738;DHT22;29398;45.328;5.558;2022-07-29T04:40:20;21.80;74.70
7738;DHT22;29398;45.328;5.558;2022-07-29T04:41:21;21.80;74.60
7738;DHT22;29398;45.328;5.558;2022-07-29T04:42:23;21.90;74.60
7738;DHT22;29398;45.328;5.558;2022-07-29T04:43:25;21.90;74.50
7738;DHT22;29398;45.328;5.558;2022-07-29T04:44:26;22.00;74.00
7738;DHT22;29398;45.328;5.558;2022-07-29T04:45:29;22.00;74.00
7738;DHT22;29398;45.328;5.558;2022-07-29T04:46:30;22.00;73.70
7738;DHT22;29398;45.328;5.558;2022-07-29T04:47:32;22.00;74.00
7738;DHT22;29398;45.328;5.558;2022-07-29T04:48:34;22.00;73.90
7738;DHT22;29398;45.328;5.558;2022-07-29T04:49:37;22.00;73.90
7738;DHT22;29398;45.328;5.558;2022-07-29T04:50:39;22.10;74.10
7738;DHT22;29398;45.328;5.558;2022-07-29T04:51:41;22.10;74.20
7738;DHT22;29398;45.328;5.558;2022-07-29T04:52:43;22.10;73.90
7738;DHT22;29398;45.328;5.558;2022-07-29T04:53:46;22.10;73.40
7738;DHT22;29398;45.328;5.558;2022-07-29T04:54:47;22.10;73.00
7738;DHT22;29398;45.328;5.558;2022-07-29T04:55:49;22.20;73.00
7738;DHT22;29398;45.328;5.558;2022-07-29T04:56:50;22.20;72.70
7738;DHT22;29398;45.328;5.558;2022-07-29T04:57:52;22.30;72.80
7738;DHT22;29398;45.328;5.558;2022-07-29T04:58:53;22.30;72.60
7738;DHT22;29398;45.328;5.558;2022-07-29T04:59:58;22.20;72.60
7738;DHT22;29398;45.328;5.558;2022-07-29T05:01:00;22.30;72.40
7738;DHT22;29398;45.328;5.558;2022-07-29T05:02:01;22.40;71.70
7738;DHT22;29398;45.328;5.558;2022-07-29T05:03:03;22.40;72.00
7738;DHT22;29398;45.328;5.558;2022-07-29T05:04:04;22.40;71.80
7738;DHT22;29398;45.328;5.558;2022-07-29T05:05:07;22.50;71.80
7738;DHT22;29398;45.328;5.558;2022-07-29T05:06:08;22.50;71.70
7738;DHT22;29398;45.328;5.558;2022-07-29T05:07:10;22.50;71.00
7738;DHT22;29398;45.328;5.558;2022-07-29T05:08:12;22.50;71.30
7738;DHT22;29398;45.328;5.558;2022-07-29T05:09:15;22.60;71.30
7738;DHT22;29398;45.328;5.558;2022-07-29T05:10:16;22.60;71.00
7738;DHT22;29398;45.328;5.558;2022-07-29T05:11:18;22.60;71.20
7738;DHT22;29398;45.328;5.558;2022-07-29T05:12:19;22.60;71.00
7738;DHT22;29398;45.328;5.558;2022-07-29T05:13:21;22.60;70.80
7738;DHT22;29398;45.328;5.558;2022-07-29T05:14:23;22.70;71.30
7738;DHT22;29398;45.328;5.558;2022-07-29T05:15:25;22.60;71.90
7738;DHT22;29398;45.328;5.558;2022-07-29T05:16:26;22.60;72.60
7738;DHT22;29398;45.328;5.558;2022-07-29T05:17:28;22.50;74.00
7738;DHT22;29398;45.328;5.558;2022-07-29T05:18:30;22.40;75.50
7738;DHT22;29398;45.328;5.558;2022-07-29T05:19:32;22.30;75.80
7738;DHT22;29398;45.328;5.558;2022-07-29T05:20:34;22.30;75.60
7738;DHT22;29398;45.328;5.558;2022-07-29T05:21:35;22.20;76.10
7738;DHT22;29398;45.328;5.558;2022-07-29T05:22:37;22.10;76.60
7738;DHT22;29398;45.328;5.558;2022-07-29T05:23:40;22.00;76.00
7738;DHT22;29398;45.328;5.558;2022-07-29T05:24:42;22.00;76.10
7738;DHT22;29398;45.328;5.558;2022-07-29T05:25:43;22.10;75.90
7738;DHT22;29398;45.328;5.558;2022-07-29T05:26:45;22.00;75.90
7738;DHT22;29398;45.328;5.558;2022-07-29T05:27:46;21.90;75.90
7738;DHT22;29398;45.328;5.558;2022-07-29T05:28:48;21.80;76.50
7738;DHT22;29398;45.328;5.558;2022-07-29T05:29:49;21.80;76.10
7738;DHT22;29398;45.328;5.558;2022-07-29T05:30:51;21.80;76.50
7738;DHT22;29398;45.328;5.558;2022-07-29T05:31:52;21.70;76.20
7738;DHT22;29398;45.328;5.558;2022-07-29T05:32:55;21.70;76.50
7738;DHT22;29398;45.328;5.558;2022-07-29T05:33:56;21.70;76.10
7738;DHT22;29398;45.328;5.558;2022-07-29T05:34:58;21.80;76.10
7738;DHT22;29398;45.328;5.558;2022-07-29T05:35:59;21.80;75.90
7738;DHT22;29398;45.328;5.558;2022-07-29T05:37:01;21.80;75.70
7738;DHT22;29398;45.328;5.558;2022-07-29T05:38:02;21.90;75.60
7738;DHT22;29398;45.328;5.558;2022-07-29T05:39:05;21.90;75.30
7738;DHT22;29398;45.328;5.558;2022-07-29T05:40:07;21.90;75.80
7738;DHT22;29398;45.328;5.558;2022-07-29T05:41:10;21.90;75.80
7738;DHT22;29398;45.328;5.558;2022-07-29T05:42:11;21.90;75.40
7738;DHT22;29398;45.328;5.558;2022-07-29T05:43:13;21.90;75.90
7738;DHT22;29398;45.328;5.558;2022-07-29T05:44:14;21.90;76.70
7738;DHT22;29398;45.328;5.558;2022-07-29T05:45:16;21.80;76.10
7738;DHT22;29398;45.328;5.558;2022-07-29T05:46:18;21.80;76.90
7738;DHT22;29398;45.328;5.558;2022-07-29T05:47:20;21.80;77.60
7738;DHT22;29398;45.328;5.558;2022-07-29T05:48:22;21.80;77.60
7738;DHT22;29398;45.328;5.558;2022-07-29T05:49:23;21.80;77.30
7738;DHT22;29398;45.328;5.558;2022-07-29T05:50:25;21.70;77.20
7738;DHT22;29398;45.328;5.558;2022-07-29T05:51:26;21.80;77.80
7738;DHT22;29398;45.328;5.558;2022-07-29T05:52:28;21.80;77.50
7738;DHT22;29398;45.328;5.558;2022-07-29T05:53:29;21.80;77.10
7738;DHT22;29398;45.328;5.558;2022-07-29T05:54:33;21.90;77.30
7738;DHT22;29398;45.328;5.558;2022-07-29T05:55:35;21.90;77.20
7738;DHT22;29398;45.328;5.558;2022-07-29T05:56:37;22.00;77.10
7738;DHT22;29398;45.328;5.558;2022-07-29T05:57:38;22.10;76.80
7738;DHT22;29398;45.328;5.558;2022-07-29T05:58:40;22.20;77.10
7738;DHT22;29398;45.328;5.558;2022-07-29T05:59:41;22.30;77.50
7738;DHT22;29398;45.328;5.558;2022-07-29T06:00:44;22.40;76.90
7738;DHT22;29398;45.328;5.558;2022-07-29T06:01:45;22.50;76.90
7738;DHT22;29398;45.328;5.558;2022-07-29T06:02:47;22.50;76.40
7738;DHT22;29398;45.328;5.558;2022-07-29T06:03:48;22.60;76.30
7738;DHT22;29398;45.328;5.558;2022-07-29T06:04:50;22.60;77.00
7738;DHT22;29398;45.328;5.558;2022-07-29T06:05:51;22.60;76.40
7738;DHT22;29398;45.328;5.558;2022-07-29T06:06:53;22.70;75.90
7738;DHT22;29398;45.328;5.558;2022-07-29T06:07:55;22.70;75.60
7738;DHT22;29398;45.328;5.558;2022-07-29T06:08:56;22.70;75.80
7738;DHT22;29398;45.328;5.558;2022-07-29T06:10:00;22.80;75.90
7738;DHT22;29398;45.328;5.558;2022-07-29T06:11:01;22.90;75.90
7738;DHT22;29398;45.328;5.558;2022-07-29T06:12:04;22.90;75.40
7738;DHT22;29398;45.328;5.558;2022-07-29T06:13:05;23.00;75.20
7738;DHT22;29398;45.328;5.558;2022-07-29T06:14:07;23.10;74.90
7738;DHT22;29398;45.328;5.558;2022-07-29T06:15:09;23.20;74.60
7738;DHT22;29398;45.328;5.558;2022-07-29T06:16:10;23.20;74.40
7738;DHT22;29398;45.328;5.558;2022-07-29T06:17:13;23.30;74.60
7738;DHT22;29398;45.328;5.558;2022-07-29T06:18:15;23.30;74.00
7738;DHT22;29398;45.328;5.558;2022-07-29T06:19:16;23.30;74.00
7738;DHT22;29398;45.328;5.558;2022-07-29T06:20:18;23.30;73.70
7738;DHT22;29398;45.328;5.558;2022-07-29T06:21:19;23.30;73.30
7738;DHT22;29398;45.328;5.558;2022-07-29T06:22:21;23.30;73.20
7738;DHT22;29398;45.328;5.558;2022-07-29T06:23:22;23.30;73.40
7738;DHT22;29398;45.328;5.558;2022-07-29T06:24:24;23.40;73.20
7738;DHT22;29398;45.328;5.558;2022-07-29T06:25:27;23.40;72.60
7738;DHT22;29398;45.328;5.558;2022-07-29T06:26:30;23.40;72.00
7738;DHT22;29398;45.328;5.558;2022-07-29T06:27:32;23.50;71.00
7738;DHT22;29398;45.328;5.558;2022-07-29T06:28:33;23.50;71.30
7738;DHT22;29398;45.328;5.558;2022-07-29T06:29:36;23.50;69.80
7738;DHT22;29398;45.328;5.558;2022-07-29T06:30:38;23.50;70.20
7738;DHT22;29398;45.328;5.558;2022-07-29T06:31:39;23.60;69.60
7738;DHT22;29398;45.328;5.558;2022-07-29T06:32:41;23.60;69.60
7738;DHT22;29398;45.328;5.558;2022-07-29T06:33:42;23.70;70.10
7738;DHT22;29398;45.328;5.558;2022-07-29T06:34:44;23.70;69.50
7738;DHT22;29398;45.328;5.558;2022-07-29T06:35:46;23.80;69.50
7738;DHT22;29398;45.328;5.558;2022-07-29T06:36:48;23.80;70.20
7738;DHT22;29398;45.328;5.558;2022-07-29T06:37:50;23.90;70.10
7738;DHT22;29398;45.328;5.558;2022-07-29T06:38:52;24.00;70.70
7738;DHT22;29398;45.328;5.558;2022-07-29T06:39:53;24.00;70.50
7738;DHT22;29398;45.328;5.558;2022-07-29T06:41:11;24.10;70.20
7738;DHT22;29398;45.328;5.558;2022-07-29T06:42:16;24.10;70.00
7738;DHT22;29398;45.328;5.558;2022-07-29T06:43:17;24.10;69.00
7738;DHT22;29398;45.328;5.558;2022-07-29T06:44:19;24.10;69.50
7738;DHT22;29398;45.328;5.558;2022-07-29T06:45:21;24.10;69.70
7738;DHT22;29398;45.328;5.558;2022-07-29T06:46:23;24.10;68.90
7738;DHT22;29398;45.328;5.558;2022-07-29T06:47:25;24.10;68.70
7738;DHT22;29398;45.328;5.558;2022-07-29T06:48:27;24.10;69.50
7738;DHT22;29398;45.328;5.558;2022-07-29T06:49:29;24.10;69.50
7738;DHT22;29398;45.328;5.558;2022-07-29T06:50:31;24.10;69.70